sensor_id;sensor_type;location;lat;lon;timestamp;P1;durP1;ratioP1;P2;durP2;ratioP2
31728;SDS011;18309;43.658;1.312;2023-08-06T00:00:24;9.57;;;2.20;;
31728;SDS011;18309;43.658;1.312;2023-08-06T00:02:50;9.27;;;2.30;;
31728;SDS011;18309;43.658;1.312;2023-08-06T00:05:16;8.23;;;2.50;;
31728;SDS011;18309;43.658;1.312;2023-08-06T00:07:43;9.18;;;2.65;;
31728;SDS011;18309;43.658;1.312;2023-08-06T00:10:10;9.52;;;2.15;;
31728;SDS011;18309;43.658;1.312;2023-08-06T00:12:36;8.60;;;2.38;;
31728;SDS011;18309;43.658;1.312;2023-08-06T00:15:02;7.43;;;2.65;;
31728;SDS011;18309;43.658;1.312;2023-08-06T00:17:27;17.50;;;3.22;;
31728;SDS011;18309;43.658;1.312;2023-08-06T00:19:53;7.30;;;2.63;;
31728;SDS011;18309;43.658;1.312;2023-08-06T00:22:19;9.95;;;2.65;;
31728;SDS011;18309;43.658;1.312;2023-08-06T00:24:44;9.77;;;2.58;;
31728;SDS011;18309;43.658;1.312;2023-08-06T00:27:10;9.90;;;2.50;;
31728;SDS011;18309;43.658;1.312;2023-08-06T00:29:36;10.32;;;2.63;;
31728;SDS011;18309;43.658;1.312;2023-08-06T00:32:01;7.60;;;2.10;;
31728;SDS011;18309;43.658;1.312;2023-08-06T00:34:27;8.93;;;2.28;;
31728;SDS011;18309;43.658;1.312;2023-08-06T00:36:53;9.13;;;2.33;;
31728;SDS011;18309;43.658;1.312;2023-08-06T00:39:19;8.95;;;2.80;;
31728;SDS011;18309;43.658;1.312;2023-08-06T00:41:44;10.57;;;2.60;;
31728;SDS011;18309;43.658;1.312;2023-08-06T00:44:10;11.07;;;2.80;;
31728;SDS011;18309;43.658;1.312;2023-08-06T00:46:36;14.68;;;2.80;;
31728;SDS011;18309;43.658;1.312;2023-08-06T00:49:02;11.45;;;2.47;;
31728;SDS011;18309;43.658;1.312;2023-08-06T00:51:27;11.30;;;2.80;;
31728;SDS011;18309;43.658;1.312;2023-08-06T00:53:53;9.23;;;2.45;;
31728;SDS011;18309;43.658;1.312;2023-08-06T00:56:20;16.98;;;2.47;;
31728;SDS011;18309;43.658;1.312;2023-08-06T00:58:46;12.27;;;2.65;;
31728;SDS011;18309;43.658;1.312;2023-08-06T01:01:12;9.68;;;2.47;;
31728;SDS011;18309;43.658;1.312;2023-08-06T01:03:38;17.20;;;2.80;;
31728;SDS011;18309;43.658;1.312;2023-08-06T01:06:04;11.27;;;2.75;;
31728;SDS011;18309;43.658;1.312;2023-08-06T01:08:35;16.80;;;2.65;;
31728;SDS011;18309;43.658;1.312;2023-08-06T01:11:38;29.55;;;3.03;;
31728;SDS011;18309;43.658;1.312;2023-08-06T01:17:33;23.75;;;3.13;;
31728;SDS011;18309;43.658;1.312;2023-08-06T01:20:00;15.80;;;2.58;;
31728;SDS011;18309;43.658;1.312;2023-08-06T01:22:26;18.17;;;3.08;;
31728;SDS011;18309;43.658;1.312;2023-08-06T01:24:51;21.33;;;3.00;;
31728;SDS011;18309;43.658;1.312;2023-08-06T01:27:21;20.60;;;2.72;;
31728;SDS011;18309;43.658;1.312;2023-08-06T01:30:31;20.23;;;3.50;;
31728;SDS011;18309;43.658;1.312;2023-08-06T01:32:53;30.48;;;3.22;;
31728;SDS011;18309;43.658;1.312;2023-08-06T01:35:24;25.52;;;2.83;;
31728;SDS011;18309;43.658;1.312;2023-08-06T01:37:51;21.95;;;3.72;;
31728;SDS011;18309;43.658;1.312;2023-08-06T01:40:17;31.27;;;4.07;;
31728;SDS011;18309;43.658;1.312;2023-08-06T01:42:43;24.30;;;3.63;;
31728;SDS011;18309;43.658;1.312;2023-08-06T01:45:09;22.23;;;2.72;;
31728;SDS011;18309;43.658;1.312;2023-08-06T01:47:35;19.25;;;3.13;;
31728;SDS011;18309;43.658;1.312;2023-08-06T01:50:01;19.25;;;2.80;;
31728;SDS011;18309;43.658;1.312;2023-08-06T01:52:27;35.00;;;3.60;;
31728;SDS011;18309;43.658;1.312;2023-08-06T01:54:53;20.25;;;2.85;;
31728;SDS011;18309;43.658;1.312;2023-08-06T01:57:19;22.15;;;3.17;;
31728;SDS011;18309;43.658;1.312;2023-08-06T01:59:45;34.30;;;3.63;;
31728;SDS011;18309;43.658;1.312;2023-08-06T02:02:10;17.58;;;2.47;;
31728;SDS011;18309;43.658;1.312;2023-08-06T02:04:37;16.30;;;3.45;;
31728;SDS011;18309;43.658;1.312;2023-08-06T02:07:02;16.50;;;2.72;;
31728;SDS011;18309;43.658;1.312;2023-08-06T02:09:28;21.88;;;3.47;;
31728;SDS011;18309;43.658;1.312;2023-08-06T02:11:54;17.25;;;2.97;;
31728;SDS011;18309;43.658;1.312;2023-08-06T02:14:19;23.98;;;3.50;;
31728;SDS011;18309;43.658;1.312;2023-08-06T02:16:45;17.90;;;3.17;;
31728;SDS011;18309;43.658;1.312;2023-08-06T02:19:11;25.10;;;2.97;;
31728;SDS011;18309;43.658;1.312;2023-08-06T02:21:36;18.42;;;3.17;;
31728;SDS011;18309;43.658;1.312;2023-08-06T02:24:02;27.75;;;2.72;;
31728;SDS011;18309;43.658;1.312;2023-08-06T02:26:28;25.88;;;3.10;;
31728;SDS011;18309;43.658;1.312;2023-08-06T02:28:53;19.38;;;2.85;;
31728;SDS011;18309;43.658;1.312;2023-08-06T02:31:19;20.77;;;2.85;;
31728;SDS011;18309;43.658;1.312;2023-08-06T02:33:45;23.90;;;2.78;;
31728;SDS011;18309;43.658;1.312;2023-08-06T02:36:10;17.38;;;2.97;;
31728;SDS011;18309;43.658;1.312;2023-08-06T02:38:36;17.15;;;2.90;;
31728;SDS011;18309;43.658;1.312;2023-08-06T02:41:02;18.77;;;2.90;;
31728;SDS011;18309;43.658;1.312;2023-08-06T02:43:28;20.92;;;2.65;;
31728;SDS011;18309;43.658;1.312;2023-08-06T02:45:57;17.42;;;2.55;;
31728;SDS011;18309;43.658;1.312;2023-08-06T02:48:25;22.40;;;3.83;;
31728;SDS011;18309;43.658;1.312;2023-08-06T02:50:50;18.23;;;3.20;;
31728;SDS011;18309;43.658;1.312;2023-08-06T02:53:16;25.85;;;2.88;;
31728;SDS011;18309;43.658;1.312;2023-08-06T02:55:48;14.73;;;2.50;;
31728;SDS011;18309;43.658;1.312;2023-08-06T02:58:14;19.40;;;2.63;;
31728;SDS011;18309;43.658;1.312;2023-08-06T03:00:40;15.82;;;2.97;;
31728;SDS011;18309;43.658;1.312;2023-08-06T03:03:06;23.90;;;4.03;;
31728;SDS011;18309;43.658;1.312;2023-08-06T03:05:31;20.40;;;3.35;;
31728;SDS011;18309;43.658;1.312;2023-08-06T03:07:57;19.67;;;3.08;;
31728;SDS011;18309;43.658;1.312;2023-08-06T03:10:23;21.42;;;3.22;;
31728;SDS011;18309;43.658;1.312;2023-08-06T03:12:48;18.98;;;2.15;;
31728;SDS011;18309;43.658;1.312;2023-08-06T03:15:14;23.77;;;2.35;;
31728;SDS011;18309;43.658;1.312;2023-08-06T03:17:40;28.77;;;3.65;;
31728;SDS011;18309;43.658;1.312;2023-08-06T03:20:05;26.52;;;3.13;;
31728;SDS011;18309;43.658;1.312;2023-08-06T03:22:31;20.50;;;2.33;;
31728;SDS011;18309;43.658;1.312;2023-08-06T03:24:57;16.40;;;2.35;;
31728;SDS011;18309;43.658;1.312;2023-08-06T03:27:23;17.70;;;2.75;;
31728;SDS011;18309;43.658;1.312;2023-08-06T03:29:49;18.95;;;2.63;;
31728;SDS011;18309;43.658;1.312;2023-08-06T03:32:15;21.15;;;2.60;;
31728;SDS011;18309;43.658;1.312;2023-08-06T03:34:41;22.48;;;3.15;;
31728;SDS011;18309;43.658;1.312;2023-08-06T03:37:07;20.73;;;2.75;;
31728;SDS011;18309;43.658;1.312;2023-08-06T03:39:32;19.02;;;2.63;;
31728;SDS011;18309;43.658;1.312;2023-08-06T03:41:58;23.95;;;2.70;;
31728;SDS011;18309;43.658;1.312;2023-08-06T03:44:23;26.23;;;3.20;;
31728;SDS011;18309;43.658;1.312;2023-08-06T03:46:49;19.80;;;2.90;;
31728;SDS011;18309;43.658;1.312;2023-08-06T03:49:15;19.73;;;3.05;;
31728;SDS011;18309;43.658;1.312;2023-08-06T03:51:41;22.80;;;2.70;;
31728;SDS011;18309;43.658;1.312;2023-08-06T03:54:06;20.00;;;2.80;;
31728;SDS011;18309;43.658;1.312;2023-08-06T03:56:32;23.25;;;3.05;;
31728;SDS011;18309;43.658;1.312;2023-08-06T03:58:57;27.25;;;3.47;;
31728;SDS011;18309;43.658;1.312;2023-08-06T04:01:23;21.33;;;2.67;;
31728;SDS011;18309;43.658;1.312;2023-08-06T04:03:49;22.83;;;3.28;;
31728;SDS011;18309;43.658;1.312;2023-08-06T04:06:14;20.52;;;2.88;;
31728;SDS011;18309;43.658;1.312;2023-08-06T04:08:40;22.13;;;3.65;;
31728;SDS011;18309;43.658;1.312;2023-08-06T04:11:06;27.70;;;3.17;;
31728;SDS011;18309;43.658;1.312;2023-08-06T04:13:31;29.98;;;4.13;;
31728;SDS011;18309;43.658;1.312;2023-08-06T04:16:00;24.02;;;3.60;;
31728;SDS011;18309;43.658;1.312;2023-08-06T04:18:29;23.25;;;3.58;;
31728;SDS011;18309;43.658;1.312;2023-08-06T04:20:55;22.65;;;3.55;;
31728;SDS011;18309;43.658;1.312;2023-08-06T04:23:22;31.77;;;3.25;;
31728;SDS011;18309;43.658;1.312;2023-08-06T04:25:48;24.63;;;3.25;;
31728;SDS011;18309;43.658;1.312;2023-08-06T04:28:14;26.17;;;3.40;;
31728;SDS011;18309;43.658;1.312;2023-08-06T04:30:39;21.08;;;3.28;;
31728;SDS011;18309;43.658;1.312;2023-08-06T04:33:05;33.38;;;4.10;;
31728;SDS011;18309;43.658;1.312;2023-08-06T04:35:31;24.00;;;3.55;;
31728;SDS011;18309;43.658;1.312;2023-08-06T04:37:56;22.65;;;3.70;;
31728;SDS011;18309;43.658;1.312;2023-08-06T04:40:22;22.80;;;3.33;;
31728;SDS011;18309;43.658;1.312;2023-08-06T04:42:47;25.42;;;3.40;;
31728;SDS011;18309;43.658;1.312;2023-08-06T04:45:13;26.70;;;3.75;;
31728;SDS011;18309;43.658;1.312;2023-08-06T04:47:39;24.00;;;3.22;;
31728;SDS011;18309;43.658;1.312;2023-08-06T04:50:04;26.55;;;3.70;;
31728;SDS011;18309;43.658;1.312;2023-08-06T04:52:31;20.52;;;2.92;;
31728;SDS011;18309;43.658;1.312;2023-08-06T04:54:57;25.17;;;3.70;;
31728;SDS011;18309;43.658;1.312;2023-08-06T04:57:23;21.92;;;3.78;;
31728;SDS011;18309;43.658;1.312;2023-08-06T04:59:48;24.95;;;3.28;;
31728;SDS011;18309;43.658;1.312;2023-08-06T05:02:14;24.08;;;3.55;;
31728;SDS011;18309;43.658;1.312;2023-08-06T05:04:40;20.70;;;2.63;;
31728;SDS011;18309;43.658;1.312;2023-08-06T05:07:05;20.98;;;3.40;;
31728;SDS011;18309;43.658;1.312;2023-08-06T05:09:31;23.77;;;3.60;;
31728;SDS011;18309;43.658;1.312;2023-08-06T05:11:57;18.35;;;3.28;;
31728;SDS011;18309;43.658;1.312;2023-08-06T05:14:25;24.77;;;3.72;;
31728;SDS011;18309;43.658;1.312;2023-08-06T05:16:51;24.13;;;3.55;;
31728;SDS011;18309;43.658;1.312;2023-08-06T05:19:16;38.58;;;3.78;;
31728;SDS011;18309;43.658;1.312;2023-08-06T05:21:42;24.67;;;3.47;;
31728;SDS011;18309;43.658;1.312;2023-08-06T05:24:07;25.30;;;4.07;;
31728;SDS011;18309;43.658;1.312;2023-08-06T05:26:33;33.15;;;4.88;;
31728;SDS011;18309;43.658;1.312;2023-08-06T05:28:59;26.05;;;3.65;;
31728;SDS011;18309;43.658;1.312;2023-08-06T05:31:25;29.20;;;4.82;;
31728;SDS011;18309;43.658;1.312;2023-08-06T05:33:51;18.45;;;2.42;;
31728;SDS011;18309;43.658;1.312;2023-08-06T05:36:17;19.23;;;3.08;;
31728;SDS011;18309;43.658;1.312;2023-08-06T05:38:43;23.73;;;2.53;;
31728;SDS011;18309;43.658;1.312;2023-08-06T05:41:08;24.75;;;3.00;;
31728;SDS011;18309;43.658;1.312;2023-08-06T05:43:34;18.10;;;2.83;;
31728;SDS011;18309;43.658;1.312;2023-08-06T05:45:59;21.13;;;2.97;;
31728;SDS011;18309;43.658;1.312;2023-08-06T05:48:25;22.38;;;3.10;;
31728;SDS011;18309;43.658;1.312;2023-08-06T05:50:52;14.10;;;2.67;;
31728;SDS011;18309;43.658;1.312;2023-08-06T05:53:18;24.90;;;2.60;;
31728;SDS011;18309;43.658;1.312;2023-08-06T05:55:44;18.98;;;3.75;;
31728;SDS011;18309;43.658;1.312;2023-08-06T05:58:10;24.73;;;3.05;;
31728;SDS011;18309;43.658;1.312;2023-08-06T06:00:36;18.30;;;2.97;;
31728;SDS011;18309;43.658;1.312;2023-08-06T06:03:01;21.67;;;2.97;;
31728;SDS011;18309;43.658;1.312;2023-08-06T06:05:27;16.15;;;3.40;;
31728;SDS011;18309;43.658;1.312;2023-08-06T06:07:53;23.63;;;3.15;;
31728;SDS011;18309;43.658;1.312;2023-08-06T06:10:19;18.88;;;2.67;;
31728;SDS011;18309;43.658;1.312;2023-08-06T06:12:44;18.55;;;2.83;;
31728;SDS011;18309;43.658;1.312;2023-08-06T06:15:10;23.38;;;2.90;;
31728;SDS011;18309;43.658;1.312;2023-08-06T06:17:36;21.42;;;3.55;;
31728;SDS011;18309;43.658;1.312;2023-08-06T06:20:02;17.63;;;3.03;;
31728;SDS011;18309;43.658;1.312;2023-08-06T06:22:29;19.13;;;3.20;;
31728;SDS011;18309;43.658;1.312;2023-08-06T06:24:55;33.90;;;4.40;;
31728;SDS011;18309;43.658;1.312;2023-08-06T06:27:20;27.38;;;3.60;;
31728;SDS011;18309;43.658;1.312;2023-08-06T06:29:46;27.95;;;3.47;;
31728;SDS011;18309;43.658;1.312;2023-08-06T06:32:12;24.42;;;3.38;;
31728;SDS011;18309;43.658;1.312;2023-08-06T06:34:37;28.65;;;3.35;;
31728;SDS011;18309;43.658;1.312;2023-08-06T06:37:03;20.95;;;3.85;;
31728;SDS011;18309;43.658;1.312;2023-08-06T06:39:29;21.25;;;3.75;;
31728;SDS011;18309;43.658;1.312;2023-08-06T06:41:55;23.13;;;3.55;;
31728;SDS011;18309;43.658;1.312;2023-08-06T06:44:20;28.83;;;3.47;;
31728;SDS011;18309;43.658;1.312;2023-08-06T06:46:46;27.15;;;3.83;;
31728;SDS011;18309;43.658;1.312;2023-08-06T06:49:12;27.98;;;4.05;;
31728;SDS011;18309;43.658;1.312;2023-08-06T06:51:38;26.35;;;3.30;;
31728;SDS011;18309;43.658;1.312;2023-08-06T06:54:04;16.00;;;2.60;;
31728;SDS011;18309;43.658;1.312;2023-08-06T06:56:29;22.77;;;3.38;;
31728;SDS011;18309;43.658;1.312;2023-08-06T06:58:55;22.83;;;3.08;;
31728;SDS011;18309;43.658;1.312;2023-08-06T07:01:21;32.60;;;4.13;;
31728;SDS011;18309;43.658;1.312;2023-08-06T07:03:46;20.02;;;2.90;;
31728;SDS011;18309;43.658;1.312;2023-08-06T07:06:12;21.70;;;2.83;;
31728;SDS011;18309;43.658;1.312;2023-08-06T07:08:38;20.40;;;3.15;;
31728;SDS011;18309;43.658;1.312;2023-08-06T07:11:04;17.63;;;2.55;;
31728;SDS011;18309;43.658;1.312;2023-08-06T07:13:31;27.67;;;3.25;;
31728;SDS011;18309;43.658;1.312;2023-08-06T07:15:57;17.20;;;3.40;;
31728;SDS011;18309;43.658;1.312;2023-08-06T07:18:23;26.05;;;3.13;;
31728;SDS011;18309;43.658;1.312;2023-08-06T07:20:49;23.27;;;3.45;;
31728;SDS011;18309;43.658;1.312;2023-08-06T07:23:16;21.98;;;3.30;;
31728;SDS011;18309;43.658;1.312;2023-08-06T07:25:42;19.38;;;2.85;;
31728;SDS011;18309;43.658;1.312;2023-08-06T07:28:08;25.42;;;3.83;;
31728;SDS011;18309;43.658;1.312;2023-08-06T07:30:38;17.60;;;2.83;;
31728;SDS011;18309;43.658;1.312;2023-08-06T07:33:04;20.40;;;2.88;;
31728;SDS011;18309;43.658;1.312;2023-08-06T07:35:29;17.05;;;3.70;;
31728;SDS011;18309;43.658;1.312;2023-08-06T07:37:55;18.58;;;2.25;;
31728;SDS011;18309;43.658;1.312;2023-08-06T07:40:21;15.38;;;2.58;;
31728;SDS011;18309;43.658;1.312;2023-08-06T07:42:46;19.08;;;2.67;;
31728;SDS011;18309;43.658;1.312;2023-08-06T07:45:12;14.95;;;2.80;;
31728;SDS011;18309;43.658;1.312;2023-08-06T07:47:37;31.73;;;3.83;;
31728;SDS011;18309;43.658;1.312;2023-08-06T07:50:03;22.73;;;2.92;;
31728;SDS011;18309;43.658;1.312;2023-08-06T07:52:29;23.52;;;2.67;;
31728;SDS011;18309;43.658;1.312;2023-08-06T07:54:55;23.80;;;3.75;;
31728;SDS011;18309;43.658;1.312;2023-08-06T07:57:20;18.50;;;2.60;;
31728;SDS011;18309;43.658;1.312;2023-08-06T07:59:46;22.05;;;2.28;;
31728;SDS011;18309;43.658;1.312;2023-08-06T08:02:12;20.98;;;2.30;;
31728;SDS011;18309;43.658;1.312;2023-08-06T08:04:37;21.92;;;2.60;;
31728;SDS011;18309;43.658;1.312;2023-08-06T08:07:03;15.52;;;2.60;;
31728;SDS011;18309;43.658;1.312;2023-08-06T08:09:29;20.95;;;2.63;;
31728;SDS011;18309;43.658;1.312;2023-08-06T08:11:55;10.63;;;2.13;;
31728;SDS011;18309;43.658;1.312;2023-08-06T08:14:20;14.93;;;2.35;;
31728;SDS011;18309;43.658;1.312;2023-08-06T08:16:46;20.60;;;2.33;;
31728;SDS011;18309;43.658;1.312;2023-08-06T08:19:12;13.70;;;2.13;;
31728;SDS011;18309;43.658;1.312;2023-08-06T08:21:37;26.23;;;3.55;;
31728;SDS011;18309;43.658;1.312;2023-08-06T08:24:03;15.57;;;2.50;;
31728;SDS011;18309;43.658;1.312;2023-08-06T08:26:29;20.33;;;2.05;;
31728;SDS011;18309;43.658;1.312;2023-08-06T08:28:56;22.27;;;2.50;;
31728;SDS011;18309;43.658;1.312;2023-08-06T08:31:21;18.98;;;2.90;;
31728;SDS011;18309;43.658;1.312;2023-08-06T08:33:47;15.27;;;2.53;;
31728;SDS011;18309;43.658;1.312;2023-08-06T08:36:13;23.23;;;2.97;;
31728;SDS011;18309;43.658;1.312;2023-08-06T08:38:38;21.30;;;3.45;;
31728;SDS011;18309;43.658;1.312;2023-08-06T08:41:04;12.38;;;2.33;;
31728;SDS011;18309;43.658;1.312;2023-08-06T08:43:30;17.95;;;2.42;;
31728;SDS011;18309;43.658;1.312;2023-08-06T08:45:57;17.33;;;2.50;;
31728;SDS011;18309;43.658;1.312;2023-08-06T08:48:24;15.15;;;2.33;;
31728;SDS011;18309;43.658;1.312;2023-08-06T08:50:51;17.70;;;2.75;;
31728;SDS011;18309;43.658;1.312;2023-08-06T08:53:18;12.85;;;2.10;;
31728;SDS011;18309;43.658;1.312;2023-08-06T08:55:46;12.02;;;1.92;;
31728;SDS011;18309;43.658;1.312;2023-08-06T08:58:13;25.30;;;3.40;;
31728;SDS011;18309;43.658;1.312;2023-08-06T09:00:42;16.85;;;2.88;;
31728;SDS011;18309;43.658;1.312;2023-08-06T09:03:10;13.18;;;2.20;;
31728;SDS011;18309;43.658;1.312;2023-08-06T09:05:36;13.45;;;1.90;;
31728;SDS011;18309;43.658;1.312;2023-08-06T09:08:04;14.98;;;2.58;;
31728;SDS011;18309;43.658;1.312;2023-08-06T09:10:30;17.70;;;3.13;;
31728;SDS011;18309;43.658;1.312;2023-08-06T09:12:56;17.45;;;2.65;;
31728;SDS011;18309;43.658;1.312;2023-08-06T09:15:24;14.20;;;2.85;;
31728;SDS011;18309;43.658;1.312;2023-08-06T09:17:51;10.77;;;2.33;;
31728;SDS011;18309;43.658;1.312;2023-08-06T09:20:20;15.32;;;2.92;;
31728;SDS011;18309;43.658;1.312;2023-08-06T09:22:46;9.98;;;2.25;;
31728;SDS011;18309;43.658;1.312;2023-08-06T09:25:13;14.38;;;2.45;;
31728;SDS011;18309;43.658;1.312;2023-08-06T09:27:50;15.20;;;2.35;;
31728;SDS011;18309;43.658;1.312;2023-08-06T09:30:30;22.40;;;2.85;;
31728;SDS011;18309;43.658;1.312;2023-08-06T09:32:56;12.07;;;2.10;;
31728;SDS011;18309;43.658;1.312;2023-08-06T09:35:22;11.30;;;2.08;;
31728;SDS011;18309;43.658;1.312;2023-08-06T09:37:48;15.07;;;2.22;;
31728;SDS011;18309;43.658;1.312;2023-08-06T09:42:55;16.63;;;2.65;;
31728;SDS011;18309;43.658;1.312;2023-08-06T09:45:22;15.07;;;2.33;;
31728;SDS011;18309;43.658;1.312;2023-08-06T09:47:55;13.70;;;2.17;;
31728;SDS011;18309;43.658;1.312;2023-08-06T09:50:21;14.02;;;2.10;;
31728;SDS011;18309;43.658;1.312;2023-08-06T09:52:47;12.32;;;1.83;;
31728;SDS011;18309;43.658;1.312;2023-08-06T09:55:14;11.00;;;1.95;;
31728;SDS011;18309;43.658;1.312;2023-08-06T09:57:40;16.77;;;2.10;;
31728;SDS011;18309;43.658;1.312;2023-08-06T10:00:10;15.40;;;1.92;;
31728;SDS011;18309;43.658;1.312;2023-08-06T10:02:40;13.70;;;2.40;;
31728;SDS011;18309;43.658;1.312;2023-08-06T10:05:07;8.10;;;1.52;;
31728;SDS011;18309;43.658;1.312;2023-08-06T10:07:33;10.68;;;1.90;;
31728;SDS011;18309;43.658;1.312;2023-08-06T10:09:59;14.43;;;2.25;;
31728;SDS011;18309;43.658;1.312;2023-08-06T10:12:26;9.00;;;1.75;;
31728;SDS011;18309;43.658;1.312;2023-08-06T10:14:55;13.75;;;2.88;;
31728;SDS011;18309;43.658;1.312;2023-08-06T10:17:22;13.68;;;3.10;;
31728;SDS011;18309;43.658;1.312;2023-08-06T10:19:49;15.18;;;2.80;;
31728;SDS011;18309;43.658;1.312;2023-08-06T10:22:19;15.88;;;2.70;;
31728;SDS011;18309;43.658;1.312;2023-08-06T10:24:45;16.38;;;2.90;;
31728;SDS011;18309;43.658;1.312;2023-08-06T10:27:14;12.57;;;1.88;;
31728;SDS011;18309;43.658;1.312;2023-08-06T10:29:47;21.33;;;2.58;;
31728;SDS011;18309;43.658;1.312;2023-08-06T10:32:15;10.73;;;1.60;;
31728;SDS011;18309;43.658;1.312;2023-08-06T10:34:53;17.23;;;3.03;;
31728;SDS011;18309;43.658;1.312;2023-08-06T10:37:23;10.82;;;2.33;;
31728;SDS011;18309;43.658;1.312;2023-08-06T10:40:01;13.80;;;1.98;;
31728;SDS011;18309;43.658;1.312;2023-08-06T10:42:28;12.15;;;1.98;;
31728;SDS011;18309;43.658;1.312;2023-08-06T10:47:41;12.15;;;1.45;;
31728;SDS011;18309;43.658;1.312;2023-08-06T10:50:07;12.25;;;1.90;;
31728;SDS011;18309;43.658;1.312;2023-08-06T10:52:35;14.23;;;2.42;;
31728;SDS011;18309;43.658;1.312;2023-08-06T10:55:01;7.80;;;1.77;;
31728;SDS011;18309;43.658;1.312;2023-08-06T10:57:27;14.35;;;2.22;;
31728;SDS011;18309;43.658;1.312;2023-08-06T10:59:52;6.82;;;1.45;;
31728;SDS011;18309;43.658;1.312;2023-08-06T11:02:18;16.88;;;2.42;;
31728;SDS011;18309;43.658;1.312;2023-08-06T11:04:44;9.68;;;2.00;;
31728;SDS011;18309;43.658;1.312;2023-08-06T11:07:09;7.75;;;1.48;;
31728;SDS011;18309;43.658;1.312;2023-08-06T11:09:35;8.63;;;1.88;;
31728;SDS011;18309;43.658;1.312;2023-08-06T11:12:02;14.35;;;2.53;;
31728;SDS011;18309;43.658;1.312;2023-08-06T11:14:31;10.77;;;2.08;;
31728;SDS011;18309;43.658;1.312;2023-08-06T11:16:57;12.25;;;2.30;;
31728;SDS011;18309;43.658;1.312;2023-08-06T11:19:23;12.75;;;2.45;;
31728;SDS011;18309;43.658;1.312;2023-08-06T11:21:49;13.32;;;2.35;;
31728;SDS011;18309;43.658;1.312;2023-08-06T11:24:16;10.05;;;2.47;;
31728;SDS011;18309;43.658;1.312;2023-08-06T11:26:42;8.10;;;2.22;;
31728;SDS011;18309;43.658;1.312;2023-08-06T11:29:09;5.97;;;1.70;;
31728;SDS011;18309;43.658;1.312;2023-08-06T11:31:35;14.20;;;2.08;;
31728;SDS011;18309;43.658;1.312;2023-08-06T11:34:01;11.00;;;1.83;;
31728;SDS011;18309;43.658;1.312;2023-08-06T11:36:31;10.15;;;2.70;;
31728;SDS011;18309;43.658;1.312;2023-08-06T11:39:01;6.78;;;1.83;;
31728;SDS011;18309;43.658;1.312;2023-08-06T11:41:30;10.70;;;1.77;;
31728;SDS011;18309;43.658;1.312;2023-08-06T11:43:57;11.52;;;1.70;;
31728;SDS011;18309;43.658;1.312;2023-08-06T11:46:23;15.68;;;2.40;;
31728;SDS011;18309;43.658;1.312;2023-08-06T11:48:53;15.98;;;1.95;;
31728;SDS011;18309;43.658;1.312;2023-08-06T11:51:23;10.60;;;1.40;;
31728;SDS011;18309;43.658;1.312;2023-08-06T11:53:59;9.68;;;2.20;;
31728;SDS011;18309;43.658;1.312;2023-08-06T11:56:25;7.07;;;1.60;;
31728;SDS011;18309;43.658;1.312;2023-08-06T11:58:52;8.15;;;1.30;;
31728;SDS011;18309;43.658;1.312;2023-08-06T12:01:22;10.23;;;1.63;;
31728;SDS011;18309;43.658;1.312;2023-08-06T12:03:49;11.85;;;1.73;;
31728;SDS011;18309;43.658;1.312;2023-08-06T12:06:15;9.07;;;1.95;;
31728;SDS011;18309;43.658;1.312;2023-08-06T12:08:40;8.57;;;1.45;;
31728;SDS011;18309;43.658;1.312;2023-08-06T12:11:07;9.68;;;1.58;;
31728;SDS011;18309;43.658;1.312;2023-08-06T12:13:33;8.95;;;1.50;;
31728;SDS011;18309;43.658;1.312;2023-08-06T12:15:59;9.30;;;1.63;;
31728;SDS011;18309;43.658;1.312;2023-08-06T12:18:25;7.25;;;1.73;;
31728;SDS011;18309;43.658;1.312;2023-08-06T12:20:50;8.35;;;1.38;;
31728;SDS011;18309;43.658;1.312;2023-08-06T12:23:16;11.90;;;2.03;;
31728;SDS011;18309;43.658;1.312;2023-08-06T12:25:42;10.77;;;1.90;;
31728;SDS011;18309;43.658;1.312;2023-08-06T12:28:09;8.68;;;1.60;;
31728;SDS011;18309;43.658;1.312;2023-08-06T12:30:35;6.32;;;1.67;;
31728;SDS011;18309;43.658;1.312;2023-08-06T12:33:01;6.57;;;1.13;;
31728;SDS011;18309;43.658;1.312;2023-08-06T12:35:27;7.93;;;1.42;;
31728;SDS011;18309;43.658;1.312;2023-08-06T12:37:52;15.32;;;2.17;;
31728;SDS011;18309;43.658;1.312;2023-08-06T12:40:19;7.03;;;1.15;;
31728;SDS011;18309;43.658;1.312;2023-08-06T12:42:45;8.18;;;1.63;;
31728;SDS011;18309;43.658;1.312;2023-08-06T12:45:11;6.70;;;1.70;;
31728;SDS011;18309;43.658;1.312;2023-08-06T12:47:37;8.35;;;1.90;;
31728;SDS011;18309;43.658;1.312;2023-08-06T12:50:03;8.13;;;1.90;;
31728;SDS011;18309;43.658;1.312;2023-08-06T12:52:32;8.30;;;1.50;;
31728;SDS011;18309;43.658;1.312;2023-08-06T12:54:58;11.85;;;2.38;;
31728;SDS011;18309;43.658;1.312;2023-08-06T12:57:24;9.32;;;1.70;;
31728;SDS011;18309;43.658;1.312;2023-08-06T12:59:49;12.27;;;1.50;;
31728;SDS011;18309;43.658;1.312;2023-08-06T13:02:15;9.60;;;2.08;;
31728;SDS011;18309;43.658;1.312;2023-08-06T13:04:41;8.73;;;1.35;;
31728;SDS011;18309;43.658;1.312;2023-08-06T13:07:07;6.57;;;1.52;;
31728;SDS011;18309;43.658;1.312;2023-08-06T13:09:32;7.38;;;1.50;;
31728;SDS011;18309;43.658;1.312;2023-08-06T13:11:58;10.60;;;1.52;;
31728;SDS011;18309;43.658;1.312;2023-08-06T13:14:25;9.15;;;1.58;;
31728;SDS011;18309;43.658;1.312;2023-08-06T13:16:50;12.07;;;2.00;;
31728;SDS011;18309;43.658;1.312;2023-08-06T13:19:16;8.85;;;1.67;;
31728;SDS011;18309;43.658;1.312;2023-08-06T13:24:15;9.60;;;1.63;;
31728;SDS011;18309;43.658;1.312;2023-08-06T13:26:40;9.57;;;1.95;;
31728;SDS011;18309;43.658;1.312;2023-08-06T13:29:06;8.25;;;1.90;;
31728;SDS011;18309;43.658;1.312;2023-08-06T13:31:35;11.05;;;1.75;;
31728;SDS011;18309;43.658;1.312;2023-08-06T13:34:01;16.88;;;2.28;;
31728;SDS011;18309;43.658;1.312;2023-08-06T13:36:27;14.77;;;1.80;;
31728;SDS011;18309;43.658;1.312;2023-08-06T13:38:53;12.68;;;2.17;;
31728;SDS011;18309;43.658;1.312;2023-08-06T13:41:19;9.50;;;1.90;;
31728;SDS011;18309;43.658;1.312;2023-08-06T13:43:45;6.00;;;1.50;;
31728;SDS011;18309;43.658;1.312;2023-08-06T13:46:11;7.90;;;1.60;;
31728;SDS011;18309;43.658;1.312;2023-08-06T13:48:41;9.20;;;2.05;;
31728;SDS011;18309;43.658;1.312;2023-08-06T13:51:12;9.00;;;1.95;;
31728;SDS011;18309;43.658;1.312;2023-08-06T13:53:38;8.05;;;1.60;;
31728;SDS011;18309;43.658;1.312;2023-08-06T13:56:05;6.93;;;1.58;;
31728;SDS011;18309;43.658;1.312;2023-08-06T13:58:31;7.20;;;2.22;;
31728;SDS011;18309;43.658;1.312;2023-08-06T14:00:57;8.93;;;1.85;;
31728;SDS011;18309;43.658;1.312;2023-08-06T14:03:23;11.45;;;2.08;;
31728;SDS011;18309;43.658;1.312;2023-08-06T14:05:49;8.88;;;1.73;;
31728;SDS011;18309;43.658;1.312;2023-08-06T14:08:15;7.95;;;1.40;;
31728;SDS011;18309;43.658;1.312;2023-08-06T14:10:45;6.30;;;1.20;;
31728;SDS011;18309;43.658;1.312;2023-08-06T14:13:10;9.65;;;1.83;;
31728;SDS011;18309;43.658;1.312;2023-08-06T14:15:36;7.55;;;1.95;;
31728;SDS011;18309;43.658;1.312;2023-08-06T14:18:04;8.85;;;1.92;;
31728;SDS011;18309;43.658;1.312;2023-08-06T14:20:30;13.65;;;1.75;;
31728;SDS011;18309;43.658;1.312;2023-08-06T14:22:56;9.52;;;1.92;;
31728;SDS011;18309;43.658;1.312;2023-08-06T14:25:22;9.43;;;1.60;;
31728;SDS011;18309;43.658;1.312;2023-08-06T14:27:48;18.65;;;2.33;;
31728;SDS011;18309;43.658;1.312;2023-08-06T14:30:13;12.43;;;2.50;;
31728;SDS011;18309;43.658;1.312;2023-08-06T14:32:39;10.55;;;2.10;;
31728;SDS011;18309;43.658;1.312;2023-08-06T14:35:05;7.32;;;1.92;;
31728;SDS011;18309;43.658;1.312;2023-08-06T14:37:31;9.73;;;2.08;;
31728;SDS011;18309;43.658;1.312;2023-08-06T14:39:57;12.05;;;1.77;;
31728;SDS011;18309;43.658;1.312;2023-08-06T14:42:23;8.98;;;1.70;;
31728;SDS011;18309;43.658;1.312;2023-08-06T14:44:48;10.55;;;2.25;;